Time;durP1;ratioP1;P1;durP2;ratioP2;P2;SDS_P1;SDS_P2;PMS_P1;PMS_P2;Temp;Humidity;BMP_temperature;BMP_pressure;BME280_temperature;BME280_humidity;BME280_pressure;Samples;Min_cycle;Max_cycle;Signal;HPM_P1;HPM_P2
2023/02/23 00:03:00;;;;;;;11.20;6.20;;;;;;;-0.85;63.72;100583.58;131232;1253;107191;-79
2023/02/23 00:06:07;;;;;;;13.40;7.00;;;;;;;-0.87;63.74;100580.19;131263;1248;107293;-79
2023/02/23 00:09:21;;;;;;;12.20;6.80;;;;;;;-0.90;63.68;100576.99;131232;1254;107693;-78
2023/02/23 00:12:28;;;;;;;14.00;7.40;;;;;;;-0.91;64.02;100578.27;131348;1247;107591;-79
2023/02/23 00:15:34;;;;;;;13.90;8.00;;;;;;;-0.94;63.71;100573.34;131412;1261;107376;-79
2023/02/23 00:18:47;;;;;;;11.30;7.00;;;;;;;-1.00;63.87;100576.77;131244;1254;107490;-79
2023/02/23 00:21:53;;;;;;;11.60;6.90;;;;;;;-1.02;63.94;100574.40;131209;1248;107354;-78
2023/02/23 00:24:59;;;;;;;11.80;6.90;;;;;;;-1.04;63.88;100578.67;131229;1271;107178;-78
2023/02/23 00:28:06;;;;;;;11.20;6.80;;;;;;;-1.04;64.04;100575.05;131348;1253;107425;-78
2023/02/23 00:31:13;;;;;;;12.50;7.70;;;;;;;-1.06;64.01;100576.02;131258;1252;107598;-78
2023/02/23 00:34:20;;;;;;;11.30;6.50;;;;;;;-1.09;63.95;100577.70;131240;1247;107451;-78
2023/02/23 00:37:26;;;;;;;11.80;6.80;;;;;;;-1.12;64.13;100576.11;131334;1254;107457;-79
2023/02/23 00:40:32;;;;;;;12.80;7.30;;;;;;;-1.15;64.11;100577.98;131276;1252;108229;-81
2023/02/23 00:43:46;;;;;;;12.40;7.20;;;;;;;-1.14;64.09;100581.45;131209;1253;107444;-78
2023/02/23 00:46:52;;;;;;;15.30;7.40;;;;;;;-1.16;64.03;100576.11;131136;1247;106510;-78
2023/02/23 00:49:57;;;;;;;15.20;8.10;;;;;;;-1.17;64.07;100577.04;131303;1261;106608;-79
2023/02/23 00:53:05;;;;;;;15.40;8.00;;;;;;;-1.17;64.15;100577.89;131242;1253;107682;-78
2023/02/23 00:56:12;;;;;;;13.60;7.70;;;;;;;-1.17;64.16;100578.41;131209;1253;106723;-79
2023/02/23 00:59:19;;;;;;;14.90;8.70;;;;;;;-1.19;64.05;100576.03;131297;1262;108145;-81
2023/02/23 01:02:29;;;;;;;14.70;8.00;;;;;;;-1.22;64.29;100579.51;131279;1253;107521;-79
2023/02/23 01:05:36;;;;;;;16.50;8.40;;;;;;;-1.25;64.08;100576.17;131303;1248;106631;-80
2023/02/23 01:08:47;;;;;;;14.10;8.20;;;;;;;-1.27;64.38;100572.74;131236;1263;107308;-78
2023/02/23 01:11:55;;;;;;;16.90;9.20;;;;;;;-1.26;64.20;100571.84;131225;1253;107426;-78
2023/02/23 01:15:02;;;;;;;14.70;8.00;;;;;;;-1.26;64.23;100575.85;131269;1251;108580;-78
2023/02/23 01:18:10;;;;;;;15.20;7.80;;;;;;;-1.26;64.21;100574.98;131441;1254;107538;-78
2023/02/23 01:21:18;;;;;;;19.20;10.70;;;;;;;-1.27;64.38;100572.58;131228;1253;107583;-78
2023/02/23 01:24:24;;;;;;;18.00;10.10;;;;;;;-1.28;64.44;100573.67;131289;1253;106542;-79
2023/02/23 01:27:29;;;;;;;16.40;8.80;;;;;;;-1.29;64.33;100572.88;131222;1248;107526;-79
2023/02/23 01:30:35;;;;;;;73.10;30.50;;;;;;;-1.35;64.14;100574.86;131312;1254;105507;-78
2023/02/23 01:33:41;;;;;;;44.90;18.70;;;;;;;-1.39;64.57;100574.00;131120;1254;108816;-78
2023/02/23 01:36:46;;;;;;;24.60;11.70;;;;;;;-1.39;64.55;100572.96;131107;1263;107533;-79
2023/02/23 01:39:52;;;;;;;26.10;13.50;;;;;;;-1.42;64.45;100568.54;131263;1252;107508;-80
2023/02/23 01:43:06;;;;;;;44.60;18.60;;;;;;;-1.43;64.65;100568.39;131280;1248;107336;-79
2023/02/23 01:46:12;;;;;;;30.80;13.40;;;;;;;-1.45;64.55;100565.55;131266;1261;108626;-79
2023/02/23 01:49:24;;;;;;;52.80;21.50;;;;;;;-1.47;64.54;100560.73;131211;1252;107465;-78
2023/02/23 01:52:29;;;;;;;32.00;12.70;;;;;;;-1.47;64.59;100555.85;131237;1257;108535;-78
2023/02/23 01:55:35;;;;;;;21.20;10.20;;;;;;;-1.45;64.81;100555.96;131267;1253;107376;-78
2023/02/23 01:58:45;;;;;;;18.90;9.20;;;;;;;-1.42;64.72;100551.80;131099;1248;107517;-80
2023/02/23 02:01:50;;;;;;;17.00;9.40;;;;;;;-1.40;64.76;100546.83;131328;1248;107548;-79
2023/02/23 02:04:56;;;;;;;20.20;10.70;;;;;;;-1.42;64.65;100540.44;131197;1253;107495;-79
2023/02/23 02:08:10;;;;;;;34.40;15.50;;;;;;;-1.41;64.75;100543.73;131322;1253;108510;-78
2023/02/23 02:11:29;;;;;;;28.20;12.20;;;;;;;-1.49;64.63;100538.15;131331;1253;107534;-79
2023/02/23 02:14:37;;;;;;;43.00;16.10;;;;;;;-1.52;64.70;100537.95;131279;1253;107542;-79
2023/02/23 02:17:54;;;;;;;44.90;17.80;;;;;;;-1.52;64.96;100534.27;131401;1248;107456;-79
2023/02/23 02:21:34;;;;;;;36.20;15.10;;;;;;;-1.48;64.96;100534.12;131097;1254;107347;-80
2023/02/23 02:25:10;;;;;;;19.90;9.20;;;;;;;-1.45;65.03;100532.40;131332;1254;107950;-78
2023/02/23 02:28:35;;;;;;;15.00;7.80;;;;;;;-1.40;65.06;100526.05;131304;1254;107397;-79
2023/02/23 02:32:17;;;;;;;13.20;7.40;;;;;;;-1.33;65.05;100526.42;131207;1271;107467;-78
2023/02/23 02:36:00;;;;;;;16.50;8.90;;;;;;;-1.24;65.19;100527.41;131187;1248;107582;-79
2023/02/23 02:39:22;;;;;;;62.90;23.20;;;;;;;-1.15;65.36;100525.80;131334;1248;107591;-79
2023/02/23 02:42:34;;;;;;;44.90;17.50;;;;;;;-1.11;65.30;100527.15;131360;1254;107561;-79
2023/02/23 02:45:48;;;;;;;43.20;18.10;;;;;;;-1.08;65.16;100525.44;131255;1263;108138;-78
2023/02/23 02:49:05;;;;;;;33.80;14.10;;;;;;;-1.06;65.27;100526.73;131282;1248;107401;-79
2023/02/23 02:52:16;;;;;;;68.50;28.60;;;;;;;-1.02;65.21;100519.77;131293;1253;108077;-79
2023/02/23 02:55:26;;;;;;;39.00;16.40;;;;;;;-0.97;65.30;100518.66;131225;1253;107433;-78
2023/02/23 02:58:32;;;;;;;27.40;12.90;;;;;;;-0.93;65.12;100517.76;131155;1263;107517;-78
2023/02/23 04:18:03;;;;;;;24.90;13.20;;;;;;;-1.00;65.89;100486.98;131163;1254;107504;-81
2023/02/23 04:21:08;;;;;;;23.00;12.40;;;;;;;-1.05;65.98;100483.23;131113;1254;107433;-79
2023/02/23 04:24:14;;;;;;;20.70;11.20;;;;;;;-1.09;66.00;100480.81;131028;1263;107552;-79
2023/02/23 04:27:20;;;;;;;20.70;11.00;;;;;;;-1.13;66.40;100483.11;131050;1251;107213;-77
2023/02/23 04:30:27;;;;;;;18.60;10.70;;;;;;;-1.16;66.22;100485.35;131051;1251;107534;-79
2023/02/23 04:33:32;;;;;;;17.70;10.20;;;;;;;-1.19;66.31;100486.69;131019;1255;107230;-79
2023/02/23 04:36:39;;;;;;;21.40;10.70;;;;;;;-1.23;66.36;100486.17;131098;1251;107227;-79
2023/02/23 04:39:48;;;;;;;19.00;10.10;;;;;;;-1.26;66.43;100484.60;131126;1253;107350;-78
2023/02/23 04:42:54;;;;;;;20.20;10.40;;;;;;;-1.23;66.63;100483.75;131135;1254;107326;-78
2023/02/23 04:46:00;;;;;;;16.30;8.30;;;;;;;-1.17;66.65;100482.45;131054;1253;107539;-77
2023/02/23 04:49:05;;;;;;;15.30;8.30;;;;;;;-1.11;66.86;100482.85;131179;1253;108636;-78
2023/02/23 04:52:11;;;;;;;17.90;9.30;;;;;;;-1.07;66.69;100475.63;131193;1254;106207;-80
2023/02/23 04:55:20;;;;;;;25.20;10.70;;;;;;;-1.02;66.82;100473.66;131134;1258;107481;-78
2023/02/23 04:58:26;;;;;;;21.10;10.40;;;;;;;-1.00;66.69;100474.07;131216;1248;107337;-78
2023/02/23 05:01:32;;;;;;;17.60;9.10;;;;;;;-0.99;66.75;100472.83;131235;1248;107592;-78
2023/02/23 05:04:37;;;;;;;15.10;8.40;;;;;;;-1.00;66.84;100475.30;131049;1247;107473;-78
2023/02/23 05:07:43;;;;;;;16.50;8.70;;;;;;;-1.01;66.70;100477.14;131290;1263;107515;-78
2023/02/23 05:10:49;;;;;;;16.80;8.60;;;;;;;-1.05;67.00;100479.39;131232;1271;107378;-78
2023/02/23 05:13:55;;;;;;;15.90;9.30;;;;;;;-1.09;67.26;100472.25;131240;1248;107497;-78
2023/02/23 05:17:00;;;;;;;17.20;9.80;;;;;;;-1.13;67.14;100474.38;131286;1264;107274;-79
2023/02/23 05:20:07;;;;;;;18.90;10.20;;;;;;;-1.18;67.27;100472.16;131348;1254;106766;-78
2023/02/23 05:23:13;;;;;;;18.00;9.90;;;;;;;-1.23;67.47;100473.80;131284;1253;107573;-79
2023/02/23 05:26:28;;;;;;;20.40;11.30;;;;;;;-1.27;67.43;100476.39;131106;1254;107493;-78
2023/02/23 05:29:43;;;;;;;21.40;12.50;;;;;;;-1.31;67.54;100471.70;130870;1271;108303;-78
2023/02/23 05:32:50;;;;;;;23.50;11.60;;;;;;;-1.33;67.61;100468.48;131286;1257;107467;-79
2023/02/23 05:35:56;;;;;;;23.30;11.70;;;;;;;-1.36;67.70;100470.23;131263;1253;108636;-78
2023/02/23 05:39:01;;;;;;;22.40;11.50;;;;;;;-1.38;67.63;100473.46;131435;1247;107219;-79
2023/02/23 05:42:07;;;;;;;24.00;12.90;;;;;;;-1.43;67.84;100474.87;131482;1253;107619;-79
2023/02/23 05:45:13;;;;;;;25.80;14.00;;;;;;;-1.45;67.86;100482.30;131308;1248;107408;-77
2023/02/23 05:48:19;;;;;;;29.60;14.80;;;;;;;-1.47;68.10;100487.45;131230;1248;107357;-79
2023/02/23 05:51:24;;;;;;;26.40;13.60;;;;;;;-1.51;68.21;100488.53;131245;1247;105479;-81
2023/02/23 05:54:30;;;;;;;26.50;13.10;;;;;;;-1.53;68.38;100491.73;131234;1253;107545;-78
2023/02/23 05:57:36;;;;;;;26.10;12.80;;;;;;;-1.49;68.42;100494.03;131241;1253;106110;-79
2023/02/23 06:00:41;;;;;;;22.10;11.40;;;;;;;-1.41;68.42;100491.73;131282;1261;108534;-78
2023/02/23 06:03:48;;;;;;;21.70;10.90;;;;;;;-1.31;68.28;100493.02;131252;1261;106357;-81
2023/02/23 06:06:53;;;;;;;19.30;9.50;;;;;;;-1.19;68.40;100492.80;131311;1271;107220;-77
2023/02/23 06:09:59;;;;;;;23.80;11.40;;;;;;;-1.06;68.52;100491.67;131260;1254;106630;-78
2023/02/23 06:13:04;;;;;;;22.10;11.40;;;;;;;-0.93;68.42;100492.28;131274;1254;107492;-78
2023/02/23 06:16:10;;;;;;;22.20;11.40;;;;;;;-0.85;68.50;100492.39;131256;1247;107614;-79
2023/02/23 06:19:16;;;;;;;21.80;11.50;;;;;;;-0.81;68.66;100491.33;131305;1254;107416;-78
2023/02/23 06:22:21;;;;;;;22.00;11.50;;;;;;;-0.76;68.66;100490.25;131291;1247;107479;-78
2023/02/23 06:25:27;;;;;;;24.60;11.90;;;;;;;-0.69;68.65;100487.64;131330;1251;107542;-78
2023/02/23 06:28:33;;;;;;;37.70;20.20;;;;;;;-0.62;68.64;100486.73;131316;1251;107523;-80
2023/02/23 06:31:38;;;;;;;26.90;14.00;;;;;;;-0.56;68.59;100487.66;131259;1254;107273;-78
2023/02/23 06:34:44;;;;;;;26.30;15.00;;;;;;;-0.50;68.82;100486.52;131085;1267;107204;-78
2023/02/23 06:37:50;;;;;;;25.90;13.50;;;;;;;-0.44;68.86;100484.27;130964;1251;107682;-77
2023/02/23 06:40:55;;;;;;;37.00;19.30;;;;;;;-0.39;68.76;100480.20;131076;1254;108157;-78
2023/02/23 06:44:01;;;;;;;27.40;15.40;;;;;;;-0.33;69.03;100480.61;131041;1254;107532;-78
2023/02/23 06:47:07;;;;;;;31.60;16.40;;;;;;;-0.25;69.07;100478.95;131207;1253;107254;-79
2023/02/23 06:50:14;;;;;;;28.60;15.60;;;;;;;-0.20;69.19;100478.68;131357;1251;107432;-77
2023/02/23 06:53:20;;;;;;;32.20;16.20;;;;;;;-0.12;68.99;100483.68;131135;1261;107265;-78
2023/02/23 06:56:26;;;;;;;38.30;18.40;;;;;;;-0.01;69.05;100483.83;131059;1263;108123;-78
2023/02/23 06:59:32;;;;;;;36.60;17.70;;;;;;;0.10;69.21;100484.16;131178;1253;107530;-76
2023/02/23 07:02:37;;;;;;;31.30;16.10;;;;;;;0.17;69.12;100485.01;131314;1253;107483;-78
2023/02/23 07:05:43;;;;;;;29.70;14.80;;;;;;;0.25;69.00;100485.42;131235;1248;107430;-79
2023/02/23 07:08:48;;;;;;;25.80;14.00;;;;;;;0.34;69.16;100484.95;131258;1253;107511;-79
2023/02/23 07:11:54;;;;;;;29.40;15.30;;;;;;;0.41;69.22;100485.29;131303;1247;107240;-78
2023/02/23 07:14:59;;;;;;;25.90;13.60;;;;;;;0.49;69.08;100484.37;131352;1254;107405;-78
2023/02/23 07:18:05;;;;;;;25.90;13.60;;;;;;;0.56;69.31;100484.14;131313;1247;105624;-78
2023/02/23 07:45:16;;;;;;;21.40;12.70;;;;;;;1.33;69.36;100454.60;131021;1263;109016;-79
2023/02/23 09:07:18;;;;;;;27.40;15.50;;;;;;;3.15;69.06;100385.34;131227;1248;107717;-79
2023/02/23 10:20:18;;;;;;;17.10;11.50;;;;;;;4.62;67.90;100317.55;131410;1248;107533;-84
2023/02/23 11:42:10;;;;;;;18.50;10.70;;;;;;;5.65;66.84;100181.10;131262;1249;107440;-84
2023/02/23 11:45:19;;;;;;;16.30;10.80;;;;;;;5.71;66.87;100174.79;131204;1250;107440;-83
2023/02/23 11:48:31;;;;;;;17.10;10.80;;;;;;;5.74;66.64;100172.77;131345;1250;107434;-83
2023/02/23 11:51:40;;;;;;;16.30;10.70;;;;;;;5.82;66.83;100168.45;131148;1265;107320;-84
2023/02/23 11:54:53;;;;;;;18.90;11.80;;;;;;;5.92;66.80;100160.02;131335;1254;107394;-82
2023/02/23 11:58:19;;;;;;;16.20;10.90;;;;;;;6.01;66.26;100160.03;131189;1250;107447;-84
2023/02/23 12:01:35;;;;;;;17.10;11.00;;;;;;;6.06;65.73;100153.23;131076;1254;107324;-84
2023/02/23 12:04:46;;;;;;;15.80;10.40;;;;;;;6.14;65.94;100150.52;131069;1255;107549;-84
2023/02/23 12:07:59;;;;;;;17.20;10.70;;;;;;;6.21;65.93;100142.44;131088;1273;107245;-84
2023/02/23 12:11:07;;;;;;;15.30;10.20;;;;;;;6.31;66.00;100143.26;131140;1250;107554;-84
2023/02/23 12:14:24;;;;;;;18.40;12.60;;;;;;;6.39;65.89;100137.84;131271;1253;107424;-82
2023/02/23 12:17:36;;;;;;;17.20;11.60;;;;;;;6.45;65.68;100134.27;131147;1253;107394;-84
2023/02/23 12:20:47;;;;;;;17.20;11.80;;;;;;;6.47;65.53;100134.08;131320;1249;107385;-81
2023/02/23 12:24:15;;;;;;;17.30;11.30;;;;;;;6.53;65.76;100128.12;131210;1254;107232;-84
2023/02/23 12:27:26;;;;;;;16.00;10.90;;;;;;;6.62;65.96;100125.77;131162;1252;108633;-84
2023/02/23 12:30:40;;;;;;;16.40;10.70;;;;;;;6.66;65.44;100118.01;131170;1249;107385;-84
2023/02/23 12:33:51;;;;;;;17.20;11.10;;;;;;;6.69;65.05;100114.59;131171;1250;107616;-83
2023/02/23 12:37:06;;;;;;;15.80;10.20;;;;;;;6.70;65.46;100113.98;131162;1253;107559;-84
2023/02/23 12:40:21;;;;;;;18.20;11.40;;;;;;;6.73;65.76;100106.14;131211;1249;107350;-84
2023/02/23 12:43:34;;;;;;;18.10;11.60;;;;;;;6.76;65.24;100101.23;131439;1251;107442;-84
2023/02/23 12:46:47;;;;;;;17.60;11.10;;;;;;;6.77;65.22;100101.88;131421;1249;107602;-84
2023/02/23 12:50:05;;;;;;;15.70;11.10;;;;;;;6.74;64.93;100097.39;131533;1249;107224;-82
2023/02/23 12:53:21;;;;;;;17.20;10.80;;;;;;;6.71;64.84;100094.27;131423;1250;107632;-82
2023/02/23 12:56:54;;;;;;;16.60;10.20;;;;;;;6.70;64.93;100090.26;131342;1249;108570;-83
2023/02/23 13:00:35;;;;;;;16.70;10.40;;;;;;;6.72;64.56;100089.44;131181;1248;107510;-83
2023/02/23 13:04:04;;;;;;;19.50;10.70;;;;;;;6.70;64.52;100085.52;131390;1248;107530;-84
2023/02/23 13:07:20;;;;;;;14.90;10.30;;;;;;;6.67;64.13;100081.82;131518;1248;107592;-82
2023/02/23 13:10:37;;;;;;;17.30;10.20;;;;;;;6.66;64.38;100079.48;131544;1247;107398;-82
2023/02/23 13:13:52;;;;;;;14.20;9.70;;;;;;;6.67;64.70;100075.14;131560;1247;107381;-82
2023/02/23 13:17:04;;;;;;;17.10;11.10;;;;;;;6.68;64.46;100075.63;131541;1247;107349;-82
2023/02/23 13:20:14;;;;;;;;;;;;;;;6.70;64.64;100074.54;131539;1253;107512;-82
2023/02/23 13:23:30;;;;;;;19.50;10.70;;;;;;;6.70;64.32;100069.41;131557;1247;106393;-82
2023/02/23 13:26:45;;;;;;;15.80;11.10;;;;;;;6.71;64.42;100066.89;131549;1247;107448;-82
2023/02/23 13:29:54;;;;;;;15.00;10.20;;;;;;;6.70;64.37;100064.28;131528;1252;107485;-81
2023/02/23 13:33:02;;;;;;;17.70;11.40;;;;;;;6.73;64.40;100058.77;131519;1253;107553;-81
2023/02/23 13:36:11;;;;;;;15.50;10.90;;;;;;;6.73;64.38;100054.83;131328;1248;107518;-83
2023/02/23 13:39:44;;;;;;;15.30;10.40;;;;;;;6.74;64.42;100050.23;131403;1247;106442;-82
2023/02/23 13:43:05;;;;;;;16.10;10.40;;;;;;;6.75;63.91;100041.26;131288;1248;107679;-83
2023/02/23 13:46:32;;;;;;;16.80;10.20;;;;;;;6.75;64.11;100036.31;131407;1247;107428;-84
2023/02/23 13:49:45;;;;;;;14.80;10.20;;;;;;;6.77;63.91;100031.84;131455;1253;107515;-83
2023/02/23 13:52:54;;;;;;;14.90;9.80;;;;;;;6.75;63.93;100026.73;131432;1247;106428;-83
2023/02/23 13:56:05;;;;;;;16.20;9.70;;;;;;;6.75;64.03;100023.73;131400;1247;107231;-84
2023/02/23 13:59:18;;;;;;;15.30;10.10;;;;;;;6.78;64.02;100016.41;131332;1248;107377;-85
2023/02/23 14:02:31;;;;;;;;;;;;;;;6.78;63.83;100009.37;131418;1253;107522;-84
2023/02/23 14:05:45;;;;;;;16.20;9.80;;;;;;;6.77;63.90;100003.57;131308;1263;107343;-84
2023/02/23 14:08:59;;;;;;;15.60;9.80;;;;;;;6.77;63.72;99999.93;131291;1247;107360;-83
2023/02/23 14:12:18;;;;;;;14.20;9.60;;;;;;;6.76;63.65;99995.38;131456;1247;107383;-83
2023/02/23 14:15:47;;;;;;;15.80;9.80;;;;;;;6.78;63.83;99988.45;131339;1252;107455;-84
2023/02/23 14:18:56;;;;;;;13.60;9.40;;;;;;;6.80;63.58;99978.77;131568;1248;107524;-83
2023/02/23 14:22:05;;;;;;;17.30;10.20;;;;;;;6.76;63.67;99976.42;131479;1248;107530;-83
2023/02/23 14:29:31;;;;;;;15.50;9.20;;;;;;;6.70;63.63;99969.34;127026;1292;635962;-83
2023/02/23 14:32:42;;;;;;;15.10;9.30;;;;;;;6.65;63.43;99968.76;130065;1264;107470;-83
2023/02/23 14:35:49;;;;;;;14.40;9.20;;;;;;;6.60;63.53;99962.29;130121;1264;107572;-83
2023/02/23 14:39:01;;;;;;;17.90;10.10;;;;;;;6.56;63.80;99958.57;130672;1256;107543;-84
2023/02/23 14:42:08;;;;;;;18.10;11.00;;;;;;;6.52;63.83;99948.70;130647;1253;118902;-84
2023/02/23 14:45:25;;;;;;;16.10;10.50;;;;;;;6.46;63.84;99948.68;130930;1253;108703;-84
2023/02/23 14:48:35;;;;;;;18.80;11.60;;;;;;;6.42;63.78;99942.84;130970;1275;107353;-81
2023/02/23 14:51:46;;;;;;;20.10;11.10;;;;;;;6.37;63.78;99939.77;130976;1275;107396;-81
2023/02/23 14:55:04;;;;;;;20.30;12.10;;;;;;;6.30;63.90;99932.05;130931;1275;107382;-84
2023/02/23 14:58:23;;;;;;;22.00;14.70;;;;;;;6.24;63.84;99936.10;130943;1253;106280;-81
2023/02/23 15:01:38;;;;;;;21.50;12.60;;;;;;;6.18;63.63;99937.83;131069;1251;107473;-81
2023/02/23 15:04:43;;;;;;;20.80;13.20;;;;;;;6.11;63.82;99933.85;131109;1251;107367;-82
2023/02/23 15:07:50;;;;;;;21.20;12.70;;;;;;;6.04;63.67;99930.01;131026;1251;107298;-84
2023/02/23 15:11:02;;;;;;;29.60;19.40;;;;;;;5.98;63.63;99927.92;130968;1251;107385;-82
2023/02/23 15:14:11;;;;;;;20.70;13.80;;;;;;;5.94;64.04;99925.58;131011;1255;107489;-84
2023/02/23 15:17:20;;;;;;;21.60;13.30;;;;;;;5.89;63.99;99928.59;130968;1251;106276;-83
2023/02/23 15:20:33;;;;;;;21.30;13.80;;;;;;;5.85;64.15;99924.08;131016;1275;107432;-82
2023/02/23 15:23:39;;;;;;;22.20;13.30;;;;;;;5.79;64.09;99921.21;131020;1256;107456;-83
2023/02/23 15:26:44;;;;;;;26.50;15.90;;;;;;;5.72;64.39;99917.35;131046;1251;107466;-83
2023/02/23 15:29:50;;;;;;;32.00;19.20;;;;;;;5.65;64.01;99915.35;131129;1251;108659;-81
2023/02/23 15:33:05;;;;;;;29.20;17.30;;;;;;;5.58;64.18;99912.24;131086;1255;107245;-81
2023/02/23 15:36:16;;;;;;;31.70;18.10;;;;;;;5.49;64.44;99910.12;131361;1247;107500;-83
2023/02/23 15:39:33;;;;;;;28.80;17.20;;;;;;;5.40;64.18;99907.50;131258;1248;107606;-83
2023/02/23 15:42:43;;;;;;;29.50;17.20;;;;;;;5.32;64.34;99903.61;131467;1252;107528;-83
2023/02/23 15:45:52;;;;;;;32.20;19.50;;;;;;;5.23;64.30;99900.80;131420;1248;107489;-81
2023/02/23 15:49:02;;;;;;;43.40;27.50;;;;;;;5.15;64.26;99907.67;131525;1248;107958;-81
2023/02/23 15:52:15;;;;;;;59.40;38.50;;;;;;;5.07;64.64;99906.15;131542;1252;107536;-81
2023/02/23 15:55:25;;;;;;;40.90;27.40;;;;;;;5.02;64.64;99907.52;131298;1252;107153;-83
2023/02/23 15:58:37;;;;;;;49.80;31.70;;;;;;;4.97;64.74;99910.19;131301;1250;107753;-81
2023/02/23 16:01:45;;;;;;;53.20;35.50;;;;;;;4.91;64.74;99915.43;131298;1252;107455;-82
2023/02/23 16:04:52;;;;;;;39.00;23.30;;;;;;;4.85;64.80;99909.55;131381;1254;107588;-82
2023/02/23 16:08:06;;;;;;;39.20;20.90;;;;;;;4.78;64.92;99899.96;131576;1248;107895;-78
2023/02/23 16:11:17;;;;;;;42.80;23.80;;;;;;;4.75;64.99;99904.45;131250;1248;105935;-81
2023/02/23 16:14:24;;;;;;;41.90;21.20;;;;;;;4.69;65.05;99901.86;131201;1248;106566;-80
2023/02/23 16:17:34;;;;;;;36.10;20.50;;;;;;;4.64;65.25;99899.25;131183;1248;107657;-83
2023/02/23 16:20:43;;;;;;;41.80;23.50;;;;;;;4.60;65.28;99896.07;131397;1248;107725;-84
2023/02/23 16:23:52;;;;;;;48.80;27.10;;;;;;;4.56;65.42;99893.77;131466;1249;107402;-83
2023/02/23 16:27:00;;;;;;;50.90;28.10;;;;;;;4.51;65.27;99891.14;131257;1252;107525;-83
2023/02/23 16:30:22;;;;;;;50.10;26.80;;;;;;;4.46;65.27;99886.47;131490;1252;106485;-83
2023/02/23 16:33:28;;;;;;;51.10;26.90;;;;;;;4.43;65.32;99887.13;131543;1252;107430;-83
2023/02/23 16:36:38;;;;;;;50.90;25.70;;;;;;;4.39;65.60;99886.19;131495;1248;107525;-82
2023/02/23 16:39:44;;;;;;;47.70;25.30;;;;;;;4.36;65.58;99889.91;131624;1248;105670;-83
2023/02/23 16:42:50;;;;;;;49.50;26.60;;;;;;;4.33;65.70;99887.33;131528;1271;107630;-82
2023/02/23 16:45:56;;;;;;;50.60;26.10;;;;;;;4.30;65.76;99886.34;131622;1248;107387;-82
2023/02/23 16:49:08;;;;;;;44.70;23.00;;;;;;;4.27;65.85;99886.59;131678;1248;109147;-83
2023/02/23 16:52:18;;;;;;;;;;;;;;;4.25;66.02;99883.38;131558;1248;107341;-75
2023/02/23 16:55:25;;;;;;;47.20;23.90;;;;;;;4.26;66.16;99882.96;131517;1263;107040;-86
2023/02/23 16:58:34;;;;;;;49.50;23.50;;;;;;;4.30;66.26;99875.75;131592;1250;107613;-84
2023/02/23 17:01:40;;;;;;;57.30;29.60;;;;;;;4.39;66.33;99873.10;131692;1252;107549;-86
2023/02/23 17:04:48;;;;;;;58.00;31.60;;;;;;;4.46;66.09;99866.77;131562;1253;108034;-86
2023/02/23 17:07:56;;;;;;;62.50;33.50;;;;;;;4.49;66.20;99865.63;131332;1250;108168;-85
2023/02/23 17:11:06;;;;;;;62.20;31.70;;;;;;;4.49;66.07;99863.52;131419;1271;107340;-85
2023/02/23 17:14:21;;;;;;;64.50;32.30;;;;;;;4.47;66.22;99859.05;131299;1248;107054;-85
2023/02/23 17:17:27;;;;;;;70.80;37.90;;;;;;;4.43;66.40;99855.55;131466;1252;107518;-84
2023/02/23 17:20:32;;;;;;;57.30;30.10;;;;;;;4.40;66.35;99852.30;131369;1248;107559;-83
2023/02/23 17:23:49;;;;;;;58.60;30.20;;;;;;;4.35;66.50;99850.01;131563;1248;106760;-85
2023/02/23 17:26:55;;;;;;;65.40;31.50;;;;;;;4.31;66.50;99843.80;131358;1252;107599;-84
2023/02/23 17:30:01;;;;;;;76.20;35.10;;;;;;;4.26;66.47;99848.41;131274;1252;107541;-85
2023/02/23 17:33:08;;;;;;;57.90;27.30;;;;;;;4.22;66.66;99848.62;131421;1252;107648;-84
2023/02/23 17:36:16;;;;;;;56.60;26.80;;;;;;;4.17;66.70;99845.65;131233;1253;107250;-83
2023/02/23 17:39:26;;;;;;;54.90;28.20;;;;;;;4.12;66.98;99843.38;131405;1271;107606;-84
2023/02/23 17:42:33;;;;;;;51.40;26.50;;;;;;;4.06;67.00;99839.98;131255;1252;107513;-84
2023/02/23 17:45:39;;;;;;;45.20;24.60;;;;;;;4.03;66.98;99836.23;131391;1252;107558;-85
2023/02/23 17:48:46;;;;;;;46.50;25.10;;;;;;;3.98;67.14;99829.73;131459;1252;108579;-85
2023/02/23 17:51:52;;;;;;;43.70;22.00;;;;;;;3.93;67.24;99823.75;131319;1271;107509;-84
2023/02/23 17:54:58;;;;;;;39.50;20.50;;;;;;;3.88;67.53;99820.70;131533;1248;107531;-87
2023/02/23 17:58:06;;;;;;;44.20;22.70;;;;;;;3.83;67.70;99815.39;131502;1252;105985;-85
2023/02/23 18:01:13;;;;;;;42.50;22.00;;;;;;;3.82;67.64;99813.76;131414;1252;107487;-85
2023/02/23 18:04:18;;;;;;;42.90;21.80;;;;;;;3.83;67.60;99805.35;131202;1248;107549;-83
2023/02/23 18:07:24;;;;;;;35.20;20.60;;;;;;;3.87;67.93;99802.07;131279;1249;106495;-83
2023/02/23 18:10:35;;;;;;;37.10;21.30;;;;;;;3.91;68.02;99799.80;131582;1249;107504;-87
2023/02/23 18:13:41;;;;;;;48.50;25.10;;;;;;;3.94;67.85;99796.76;131733;1252;106173;-84
2023/02/23 18:16:47;;;;;;;48.80;25.30;;;;;;;3.96;67.85;99791.86;131706;1248;107197;-88
2023/02/23 18:19:52;;;;;;;40.70;22.60;;;;;;;3.96;68.00;99784.66;131403;1250;107543;-84
2023/02/23 18:22:58;;;;;;;36.20;20.50;;;;;;;3.93;68.12;99782.72;131324;1248;107323;-83
2023/02/23 18:26:08;;;;;;;38.70;21.50;;;;;;;3.90;68.18;99777.35;131267;1252;107159;-84
2023/02/23 18:29:13;;;;;;;39.00;21.50;;;;;;;3.86;68.30;99774.50;131356;1252;107446;-81
2023/02/23 18:32:19;;;;;;;37.70;21.10;;;;;;;3.84;68.22;99773.33;131609;1251;108128;-79
2023/02/23 18:35:24;;;;;;;38.90;20.50;;;;;;;3.81;68.46;99773.33;131368;1250;108679;-76
2023/02/23 18:38:30;;;;;;;36.40;21.20;;;;;;;3.78;68.44;99772.73;131361;1247;107600;-78
2023/02/23 18:41:40;;;;;;;36.70;20.70;;;;;;;3.75;68.57;99767.98;131425;1250;108534;-83
2023/02/23 18:44:46;;;;;;;35.30;19.70;;;;;;;3.74;68.65;99765.97;131583;1251;107115;-81
2023/02/23 18:47:52;;;;;;;44.30;26.10;;;;;;;3.72;68.61;99762.27;131479;1251;106384;-80
2023/02/23 18:50:58;;;;;;;34.20;21.00;;;;;;;3.72;68.89;99753.31;131352;1251;107460;-80
2023/02/23 18:54:09;;;;;;;36.30;20.10;;;;;;;3.74;68.81;99752.44;131297;1248;107349;-81
2023/02/23 18:57:15;;;;;;;35.80;21.30;;;;;;;3.79;69.02;99746.80;131394;1250;107483;-79
2023/02/23 19:00:21;;;;;;;38.90;23.50;;;;;;;3.84;69.16;99748.30;131375;1252;107530;-84
2023/02/23 19:03:27;;;;;;;36.80;20.90;;;;;;;3.90;69.00;99749.03;131448;1251;105411;-85
2023/02/23 19:06:36;;;;;;;35.00;20.60;;;;;;;3.96;69.05;99743.52;131378;1271;107355;-83
2023/02/23 19:09:45;;;;;;;37.50;20.70;;;;;;;3.99;69.03;99739.20;131391;1251;107518;-82
2023/02/23 19:12:51;;;;;;;38.10;20.80;;;;;;;3.99;68.92;99731.78;131404;1247;108243;-81
2023/02/23 19:15:58;;;;;;;81.10;40.40;;;;;;;3.98;69.03;99728.05;131586;1252;109245;-82
2023/02/23 19:19:06;;;;;;;120.00;62.50;;;;;;;3.95;69.18;99725.98;131546;1250;107389;-81
2023/02/23 19:22:12;;;;;;;83.20;44.80;;;;;;;3.93;69.07;99723.27;131569;1252;107513;-81
2023/02/23 19:25:17;;;;;;;66.90;36.90;;;;;;;3.88;69.25;99715.95;131483;1247;107633;-81
2023/02/23 19:28:23;;;;;;;46.10;27.00;;;;;;;3.82;69.21;99713.59;131415;1250;107480;-81
2023/02/23 19:31:30;;;;;;;42.90;24.00;;;;;;;3.75;69.38;99708.90;131554;1263;107400;-83
2023/02/23 19:34:38;;;;;;;41.00;24.30;;;;;;;3.67;69.54;99706.02;131508;1248;108745;-82
2023/02/23 19:37:49;;;;;;;122.40;50.20;;;;;;;3.61;69.68;99701.45;131437;1252;107545;-81
2023/02/23 19:40:56;;;;;;;149.50;54.10;;;;;;;3.54;69.79;99699.63;131437;1266;107236;-81
2023/02/23 19:44:02;;;;;;;62.90;28.20;;;;;;;3.46;69.92;99694.98;131511;1252;107478;-81
2023/02/23 19:47:08;;;;;;;44.20;23.00;;;;;;;3.42;69.93;99693.73;131485;1247;107534;-80
2023/02/23 19:50:17;;;;;;;126.80;45.70;;;;;;;3.41;70.09;99683.31;131504;1250;107380;-81